createdAt,value
2018-07-12T00:02:18.266Z,16.70
2018-07-12T00:04:46.554Z,15.63
2018-07-12T00:07:14.370Z,16.30
2018-07-12T00:09:42.339Z,16.40
2018-07-12T00:12:10.181Z,16.23
2018-07-12T00:14:38.051Z,16.53
2018-07-12T00:17:06.529Z,16.70
2018-07-12T00:19:34.591Z,16.97
2018-07-12T00:22:02.421Z,16.30
2018-07-12T00:24:30.260Z,17.10
2018-07-12T00:26:58.404Z,16.57
2018-07-12T00:29:26.322Z,17.73
2018-07-12T00:31:54.321Z,17.17
2018-07-12T00:34:22.155Z,16.53
2018-07-12T00:36:50.196Z,17.40
2018-07-12T00:39:28.795Z,17.57
2018-07-12T00:41:56.608Z,17.37
2018-07-12T00:44:24.374Z,18.70
2018-07-12T00:46:51.793Z,16.83
2018-07-12T00:49:19.645Z,16.67
2018-07-12T00:51:47.690Z,16.10
2018-07-12T00:54:15.512Z,15.67
2018-07-12T00:56:43.274Z,15.07
2018-07-12T00:59:11.074Z,16.00
2018-07-12T01:01:39.370Z,16.50
2018-07-12T01:04:07.214Z,16.90
2018-07-12T01:06:35.359Z,16.17
2018-07-12T01:09:03.170Z,15.50
2018-07-12T01:11:30.945Z,17.40
2018-07-12T01:13:58.718Z,17.10
2018-07-12T01:16:26.886Z,16.73
2018-07-12T01:18:54.672Z,17.20
2018-07-12T01:21:22.452Z,17.20
2018-07-12T01:23:50.759Z,18.10
2018-07-12T01:26:18.611Z,17.87
2018-07-12T01:28:46.447Z,18.73
2018-07-12T01:31:14.257Z,18.40
2018-07-12T01:33:42.010Z,16.80
2018-07-12T01:36:09.826Z,17.40
2018-07-12T01:38:37.653Z,19.20
2018-07-12T01:41:05.473Z,17.90
2018-07-12T01:43:33.274Z,17.40
2018-07-12T01:46:01.187Z,19.43
2018-07-12T01:48:29.007Z,18.23
2018-07-12T01:50:56.839Z,18.50
2018-07-12T01:53:25.262Z,17.77
2018-07-12T01:55:53.188Z,17.87
2018-07-12T01:58:20.950Z,18.27
2018-07-12T02:00:48.921Z,19.50
2018-07-12T02:03:17.126Z,20.03
2018-07-12T02:05:44.895Z,18.70
2018-07-12T02:08:12.967Z,19.90
2018-07-12T02:10:40.760Z,18.03
2018-07-12T02:13:08.565Z,18.43
2018-07-12T02:15:36.390Z,18.90
2018-07-12T02:18:04.194Z,18.77
2018-07-12T02:20:31.985Z,19.97
2018-07-12T02:22:59.827Z,20.43
2018-07-12T02:25:27.614Z,20.00
2018-07-12T02:27:55.374Z,19.43
2018-07-12T02:30:23.567Z,18.43
2018-07-12T02:32:51.327Z,18.83
2018-07-12T02:35:19.137Z,19.50
2018-07-12T02:37:47.018Z,19.47
2018-07-12T02:40:14.810Z,21.03
2018-07-12T02:42:42.575Z,20.47
2018-07-12T02:45:10.376Z,20.57
2018-07-12T02:47:38.150Z,19.90
2018-07-12T02:50:05.942Z,21.43
2018-07-12T02:52:34.035Z,22.63
2018-07-12T02:55:01.809Z,22.63
2018-07-12T02:57:29.600Z,23.53
2018-07-12T02:59:57.413Z,22.17
2018-07-12T03:02:25.249Z,20.00
2018-07-12T03:04:53.073Z,21.83
2018-07-12T03:07:20.881Z,22.40
2018-07-12T03:09:48.670Z,21.13
2018-07-12T03:12:17.295Z,21.70
2018-07-12T03:14:45.227Z,21.93
2018-07-12T03:17:13.020Z,21.53
2018-07-12T03:19:40.794Z,21.73
2018-07-12T03:22:08.609Z,21.17
2018-07-12T03:24:36.394Z,21.07
2018-07-12T03:27:04.146Z,22.63
2018-07-12T03:29:31.930Z,21.63
2018-07-12T03:31:59.737Z,21.43
2018-07-12T03:34:27.571Z,22.17
2018-07-12T03:36:55.573Z,21.97
2018-07-12T03:39:23.439Z,22.70
2018-07-12T03:41:51.245Z,22.93
2018-07-12T03:44:19.194Z,23.00
2018-07-12T03:46:46.998Z,21.70
2018-07-12T03:49:14.801Z,22.43
2018-07-12T03:51:42.829Z,22.60
2018-07-12T03:54:10.591Z,22.90
2018-07-12T03:56:38.369Z,23.80
2018-07-12T03:59:06.445Z,22.73
2018-07-12T04:01:34.224Z,21.90
2018-07-12T04:04:02.031Z,22.93
2018-07-12T04:06:29.861Z,23.90
2018-07-12T04:08:57.799Z,24.83
2018-07-12T04:11:25.742Z,24.90
2018-07-12T04:13:53.573Z,24.47
2018-07-12T04:16:21.363Z,23.40
2018-07-12T04:18:49.209Z,22.97
2018-07-12T04:21:18.084Z,22.40
2018-07-12T04:23:45.927Z,22.50
2018-07-12T04:26:13.958Z,23.03
2018-07-12T04:28:41.792Z,23.70
2018-07-12T04:31:09.758Z,22.37
2018-07-12T04:33:37.587Z,21.27
2018-07-12T04:36:05.402Z,22.23
2018-07-12T04:38:33.188Z,21.67
2018-07-12T04:41:01.091Z,21.97
2018-07-12T04:43:29.450Z,20.47
2018-07-12T04:45:57.467Z,21.10
2018-07-12T04:48:25.232Z,20.17
2018-07-12T04:50:53.039Z,20.97
2018-07-12T04:53:20.918Z,21.47
2018-07-12T04:55:48.809Z,19.70
2018-07-12T04:58:16.801Z,20.23
2018-07-12T05:00:44.797Z,22.17
2018-07-12T05:03:12.589Z,22.00
2018-07-12T05:05:40.506Z,22.37
2018-07-12T05:08:08.324Z,22.13
2018-07-12T05:10:36.059Z,21.90
2018-07-12T05:13:03.824Z,22.07
2018-07-12T05:15:31.615Z,22.57
2018-07-12T05:17:59.438Z,22.73
2018-07-12T05:20:27.262Z,21.27
2018-07-12T05:22:55.052Z,23.63
2018-07-12T05:25:22.825Z,23.70
2018-07-12T05:27:50.729Z,22.10
2018-07-12T05:30:18.807Z,23.07
2018-07-12T05:32:46.575Z,22.60
2018-07-12T05:35:14.382Z,24.17
2018-07-12T05:37:43.700Z,22.80
2018-07-12T05:40:12.982Z,24.57
2018-07-12T05:42:42.358Z,24.70
2018-07-12T05:45:11.445Z,24.67
2018-07-12T05:47:40.811Z,23.33
2018-07-12T05:50:10.244Z,24.10
2018-07-12T05:52:39.554Z,33.43
2018-07-12T05:55:09.020Z,26.03
2018-07-12T05:57:38.351Z,23.60
2018-07-12T06:00:07.727Z,25.00
2018-07-12T06:02:37.024Z,23.63
2018-07-12T06:05:06.451Z,23.80
2018-07-12T06:07:35.828Z,24.97
2018-07-12T06:10:05.228Z,26.27
2018-07-12T06:12:34.939Z,25.30
2018-07-12T06:15:04.310Z,24.70
2018-07-12T06:17:33.610Z,23.30
2018-07-12T06:20:03.013Z,24.50
2018-07-12T06:22:32.389Z,25.80
2018-07-12T06:25:01.718Z,24.30
2018-07-12T06:27:31.680Z,25.77
2018-07-12T06:30:01.152Z,29.20
2018-07-12T06:32:30.403Z,29.63
2018-07-12T06:34:59.831Z,27.77
2018-07-12T06:37:28.892Z,27.80
2018-07-12T06:39:58.195Z,26.40
2018-07-12T06:42:27.501Z,29.00
2018-07-12T06:44:56.558Z,28.30
2018-07-12T06:47:26.095Z,27.80
2018-07-12T06:49:55.466Z,28.73
2018-07-12T06:52:24.788Z,28.60
2018-07-12T06:54:54.242Z,26.60
2018-07-12T06:57:23.730Z,25.37
2018-07-12T06:59:53.077Z,24.40
2018-07-12T07:02:22.506Z,24.80
2018-07-12T07:04:51.908Z,23.17
2018-07-12T07:07:21.289Z,21.83
2018-07-12T07:09:50.698Z,21.40
2018-07-12T07:12:20.024Z,20.90
2018-07-12T07:14:49.306Z,20.80
2018-07-12T07:17:18.576Z,20.30
2018-07-12T07:19:48.651Z,19.90
2018-07-12T07:22:17.979Z,18.67
2018-07-12T07:24:47.281Z,19.20
2018-07-12T07:27:16.647Z,17.43
2018-07-12T07:29:46.051Z,17.73
2018-07-12T07:32:15.331Z,16.10
2018-07-12T07:34:44.690Z,18.10
2018-07-12T07:37:14.054Z,17.33
2018-07-12T07:39:43.424Z,16.00
2018-07-12T07:42:12.856Z,15.13
2018-07-12T07:44:42.230Z,15.93
2018-07-12T07:47:11.630Z,16.43
2018-07-12T07:49:41.126Z,14.67
2018-07-12T07:52:10.459Z,14.67
2018-07-12T07:54:39.977Z,13.17
2018-07-12T07:57:09.420Z,13.47
2018-07-12T07:59:38.656Z,13.60
2018-07-12T08:02:09.272Z,13.00
2018-07-12T08:04:38.726Z,13.87
2018-07-12T08:07:11.173Z,12.57
2018-07-12T08:09:42.565Z,13.67
2018-07-12T08:12:11.922Z,12.57
2018-07-12T08:14:41.588Z,11.70
2018-07-12T08:17:10.955Z,13.57
2018-07-12T08:19:40.652Z,10.60
2018-07-12T08:22:11.059Z,9.20
2018-07-12T08:24:40.498Z,8.30
2018-07-12T08:27:10.381Z,7.90
2018-07-12T08:29:39.698Z,9.30
2018-07-12T08:32:09.115Z,8.60
2018-07-12T08:34:38.731Z,7.80
2018-07-12T08:37:08.036Z,8.00
2018-07-12T08:39:37.506Z,7.50
2018-07-12T08:42:06.944Z,7.73
2018-07-12T08:44:36.216Z,8.40
2018-07-12T08:47:05.979Z,8.13
2018-07-12T08:49:35.316Z,10.03
2018-07-12T08:52:04.856Z,9.90
2018-07-12T08:54:34.503Z,8.70
2018-07-12T08:57:03.818Z,7.80
2018-07-12T08:59:33.111Z,7.00
2018-07-12T09:02:02.458Z,6.80
2018-07-12T09:04:31.792Z,7.70
2018-07-12T09:07:01.087Z,6.57
2018-07-12T09:09:30.812Z,6.20
2018-07-12T09:12:00.072Z,6.30
2018-07-12T09:14:29.431Z,6.33
2018-07-12T09:16:58.737Z,6.40
2018-07-12T09:19:27.967Z,6.50
2018-07-12T09:21:57.264Z,6.73
2018-07-12T09:24:26.590Z,7.20
2018-07-12T09:26:55.932Z,6.90
2018-07-12T09:29:25.231Z,7.90
2018-07-12T09:31:54.880Z,6.43
2018-07-12T09:34:24.208Z,4.83
2018-07-12T09:36:53.671Z,4.67
2018-07-12T09:39:22.975Z,4.93
2018-07-12T09:41:52.265Z,5.10
2018-07-12T09:44:21.588Z,5.87
2018-07-12T09:46:51.015Z,5.57
2018-07-12T09:49:20.465Z,5.20
2018-07-12T09:51:49.884Z,4.90
2018-07-12T09:54:19.562Z,5.00
2018-07-12T09:57:05.650Z,5.40
2018-07-12T09:59:34.958Z,6.77
2018-07-12T10:02:09.449Z,6.20
2018-07-12T10:04:38.777Z,6.40
2018-07-12T10:07:13.434Z,5.50
2018-07-12T10:09:48.029Z,5.03
2018-07-12T10:12:22.480Z,6.40
2018-07-12T10:14:55.923Z,5.10
2018-07-12T10:17:30.590Z,5.30
2018-07-12T10:20:00.133Z,5.20
2018-07-12T10:22:29.444Z,5.20
2018-07-12T10:24:58.744Z,5.00
2018-07-12T10:27:28.997Z,5.00
2018-07-12T10:29:58.423Z,4.73
2018-07-12T10:32:27.701Z,5.20
2018-07-12T10:34:57.037Z,4.53
2018-07-12T10:37:26.338Z,4.53
2018-07-12T10:39:55.422Z,4.50
2018-07-12T10:42:25.282Z,4.80
2018-07-12T10:44:54.691Z,4.70
2018-07-12T10:47:24.054Z,4.27
2018-07-12T10:49:53.844Z,5.03
2018-07-12T10:52:23.206Z,4.70
2018-07-12T10:54:52.525Z,4.87
2018-07-12T10:57:24.597Z,5.17
2018-07-12T10:59:54.038Z,4.50
2018-07-12T11:02:23.416Z,4.20
2018-07-12T11:04:52.794Z,4.27
2018-07-12T11:07:22.080Z,4.20
2018-07-12T11:09:51.444Z,4.63
2018-07-12T11:12:21.593Z,4.77
2018-07-12T11:14:50.934Z,4.20
2018-07-12T11:17:20.251Z,4.30
2018-07-12T11:19:49.638Z,4.50
2018-07-12T11:22:18.986Z,4.33
2018-07-12T11:24:48.305Z,4.40
2018-07-12T11:27:17.662Z,4.17
2018-07-12T11:29:57.017Z,4.43
2018-07-12T11:32:27.007Z,3.90
2018-07-12T11:34:56.362Z,4.27
2018-07-12T11:37:26.914Z,3.80
2018-07-12T11:39:56.344Z,3.90
2018-07-12T11:42:25.706Z,3.80
2018-07-12T11:44:55.983Z,3.43
2018-07-12T11:47:25.412Z,4.00
2018-07-12T11:49:54.841Z,3.40
2018-07-12T11:52:24.374Z,4.03
2018-07-12T11:54:54.228Z,4.50
2018-07-12T11:57:23.591Z,3.90
2018-07-12T11:59:52.938Z,3.83
2018-07-12T12:02:22.336Z,3.63
2018-07-12T12:04:51.738Z,3.37
2018-07-12T12:07:21.097Z,2.97
2018-07-12T12:09:51.035Z,3.33
2018-07-12T12:12:20.391Z,3.47
2018-07-12T12:14:49.794Z,3.10
2018-07-12T12:17:19.494Z,3.77
2018-07-12T12:19:48.982Z,4.07
2018-07-12T12:22:18.268Z,3.30
2018-07-12T12:24:47.353Z,3.83
2018-07-12T12:27:16.690Z,3.80
2018-07-12T12:29:46.079Z,3.90
2018-07-12T12:32:15.449Z,3.80
2018-07-12T12:34:44.790Z,3.57
2018-07-12T12:37:14.104Z,4.37
2018-07-12T12:39:43.624Z,4.43
2018-07-12T12:42:12.907Z,3.80
2018-07-12T12:44:42.236Z,4.40
2018-07-12T12:47:11.596Z,3.83
2018-07-12T12:49:41.456Z,4.30
2018-07-12T12:52:10.827Z,4.70
2018-07-12T12:54:40.216Z,4.60
2018-07-12T12:57:09.555Z,4.60
2018-07-12T12:59:38.969Z,3.87
2018-07-12T13:02:08.248Z,4.70
2018-07-12T13:04:37.617Z,4.67
2018-07-12T13:07:07.192Z,3.83
2018-07-12T13:09:36.595Z,4.47
2018-07-12T13:12:06.034Z,4.80
2018-07-12T13:14:35.368Z,4.17
2018-07-12T13:17:04.711Z,4.40
2018-07-12T13:19:34.056Z,4.80
2018-07-12T13:22:03.439Z,4.67
2018-07-12T13:24:33.364Z,5.37
2018-07-12T13:27:02.744Z,5.23
2018-07-12T13:32:06.000Z,4.10
2018-07-12T13:34:35.473Z,3.87
2018-07-12T13:37:05.215Z,4.00
2018-07-12T13:39:35.115Z,4.97
2018-07-12T13:42:04.491Z,3.63
2018-07-12T13:44:33.874Z,4.73
2018-07-12T13:47:03.172Z,3.63
2018-07-12T13:49:32.501Z,3.73
2018-07-12T13:52:01.885Z,4.27
2018-07-12T13:54:31.235Z,4.13
2018-07-12T13:57:00.631Z,4.10
2018-07-12T13:59:29.942Z,4.10
2018-07-12T14:01:59.880Z,3.70
2018-07-12T14:04:29.411Z,3.60
2018-07-12T14:06:58.759Z,4.10
2018-07-12T14:09:28.168Z,4.47
2018-07-12T14:11:57.678Z,3.67
2018-07-12T14:14:27.010Z,3.80
2018-07-12T14:16:56.430Z,4.20
2018-07-12T14:19:25.857Z,3.60
2018-07-12T14:21:55.216Z,4.00
2018-07-12T14:24:25.373Z,3.57
2018-07-12T14:26:54.840Z,4.27
2018-07-12T14:29:24.263Z,4.07
2018-07-12T14:31:53.643Z,4.20
2018-07-12T14:34:22.999Z,4.20
2018-07-12T14:36:52.546Z,4.00
2018-07-12T14:39:22.070Z,4.80
2018-07-12T14:41:51.483Z,4.27
2018-07-12T14:44:20.823Z,4.23
2018-07-12T14:46:51.370Z,4.50
2018-07-12T14:49:20.639Z,4.57
2018-07-12T14:51:49.963Z,4.10
2018-07-12T14:54:19.319Z,4.90
2018-07-12T14:56:48.673Z,4.53
2018-07-12T14:59:18.057Z,4.20
2018-07-12T15:01:47.490Z,4.50
2018-07-12T15:04:16.793Z,4.40
2018-07-12T15:06:46.391Z,4.00
2018-07-12T15:09:16.181Z,4.23
2018-07-12T15:11:45.362Z,4.60
2018-07-12T15:14:14.646Z,4.57
2018-07-12T15:16:44.130Z,4.17
2018-07-12T15:19:13.644Z,4.70
2018-07-12T15:21:42.920Z,4.00
2018-07-12T15:24:12.351Z,4.37
2018-07-12T15:26:41.862Z,4.20
2018-07-12T15:29:11.422Z,3.97
2018-07-12T15:31:41.378Z,4.00
2018-07-12T15:34:10.706Z,4.40
2018-07-12T15:36:40.260Z,4.67
2018-07-12T15:39:10.165Z,4.47
2018-07-12T15:41:40.182Z,5.10
2018-07-12T15:44:10.494Z,5.20
2018-07-12T15:46:40.025Z,4.97
2018-07-12T15:49:09.381Z,4.90
2018-07-12T15:51:38.707Z,4.10
2018-07-12T15:54:08.427Z,4.43
2018-07-12T15:56:37.735Z,4.50
2018-07-12T15:59:07.015Z,4.90
2018-07-12T16:01:36.459Z,4.20
2018-07-12T16:04:05.969Z,4.90
2018-07-12T16:06:35.291Z,4.60
2018-07-12T16:09:06.084Z,3.67
2018-07-12T16:11:35.561Z,4.03
2018-07-12T16:14:05.045Z,3.57
2018-07-12T16:16:34.628Z,3.10
2018-07-12T16:19:04.024Z,3.63
2018-07-12T16:21:33.362Z,3.60
2018-07-12T16:24:02.705Z,3.50
2018-07-12T16:26:32.036Z,3.60
2018-07-12T16:29:01.459Z,3.53
2018-07-12T16:31:30.907Z,3.77
2018-07-12T16:34:00.138Z,3.57
2018-07-12T16:36:29.498Z,3.70
2018-07-12T16:38:59.064Z,3.77
2018-07-12T16:41:28.445Z,3.77
2018-07-12T16:43:57.773Z,5.57
2018-07-12T16:46:27.151Z,4.00
2018-07-12T16:48:56.456Z,3.87
2018-07-12T16:51:25.890Z,3.90
2018-07-12T16:53:55.242Z,4.87
2018-07-12T16:56:24.546Z,4.37
2018-07-12T16:58:53.894Z,4.30
2018-07-12T17:01:23.632Z,4.60
2018-07-12T17:03:53.052Z,3.80
2018-07-12T17:06:22.862Z,4.87
2018-07-12T17:08:52.380Z,3.73
2018-07-12T17:11:21.770Z,3.90
2018-07-12T17:13:51.168Z,3.70
2018-07-12T17:16:20.571Z,4.30
2018-07-12T17:18:49.920Z,4.40
2018-07-12T17:21:19.324Z,4.63
2018-07-12T17:23:49.203Z,4.33
2018-07-12T17:26:18.579Z,3.77
2018-07-12T17:28:47.989Z,4.10
2018-07-12T17:31:17.359Z,4.37
2018-07-12T17:33:46.768Z,4.13
2018-07-12T17:36:16.146Z,4.37
2018-07-12T17:38:45.617Z,4.63
2018-07-12T17:41:14.969Z,4.40
2018-07-12T17:43:44.318Z,4.57
2018-07-12T17:46:13.802Z,4.60
2018-07-12T17:48:43.189Z,4.67
2018-07-12T17:51:12.608Z,4.53
2018-07-12T17:53:42.219Z,4.20
2018-07-12T17:56:11.594Z,4.20
2018-07-12T17:58:41.099Z,4.50
2018-07-12T18:01:10.585Z,4.40
2018-07-12T18:03:40.026Z,5.50
2018-07-12T18:06:09.338Z,5.33
2018-07-12T18:08:38.960Z,4.60
2018-07-12T18:11:08.381Z,4.90
2018-07-12T18:13:37.799Z,4.87
2018-07-12T18:16:07.326Z,4.63
2018-07-12T18:18:36.703Z,4.90
2018-07-12T18:21:06.492Z,4.13
2018-07-12T18:23:35.856Z,4.77
2018-07-12T18:26:05.581Z,4.47
2018-07-12T18:28:35.212Z,4.50
2018-07-12T18:31:04.876Z,5.23
2018-07-12T18:33:34.689Z,4.80
2018-07-12T18:36:04.288Z,4.13
2018-07-12T18:38:33.922Z,4.00
2018-07-12T18:41:03.440Z,5.50
2018-07-12T18:43:32.858Z,5.57
2018-07-12T18:46:02.178Z,4.43
2018-07-12T18:48:31.519Z,5.40
2018-07-12T18:51:00.839Z,4.50
2018-07-12T18:53:30.574Z,4.43
2018-07-12T18:55:59.985Z,4.50
2018-07-12T18:58:29.379Z,4.77
2018-07-12T19:00:58.768Z,4.37
2018-07-12T19:03:28.162Z,3.93
2018-07-12T19:05:57.620Z,4.07
2018-07-12T19:08:27.059Z,4.50
2018-07-12T19:10:56.627Z,4.43
2018-07-12T19:13:25.942Z,4.53
2018-07-12T19:15:55.950Z,4.43
2018-07-12T19:18:25.415Z,4.83
2018-07-12T19:20:54.762Z,4.83
2018-07-12T19:23:24.387Z,4.60
2018-07-12T19:25:53.838Z,4.60
2018-07-12T19:28:23.294Z,4.90
2018-07-12T19:30:52.711Z,4.53
2018-07-12T19:33:22.087Z,5.67
2018-07-12T19:35:51.516Z,5.10
2018-07-12T19:38:21.295Z,4.77
2018-07-12T19:40:50.683Z,4.70
2018-07-12T19:43:20.130Z,5.37
2018-07-12T19:45:49.716Z,4.73
2018-07-12T19:48:19.384Z,5.30
2018-07-12T19:50:48.820Z,6.00
2018-07-12T19:53:18.426Z,5.53
2018-07-12T19:55:50.354Z,5.30
2018-07-12T19:58:19.895Z,5.87
2018-07-12T20:00:49.299Z,5.60
2018-07-12T20:03:18.655Z,5.07
2018-07-12T20:05:48.253Z,5.00
2018-07-12T20:08:17.693Z,5.30
2018-07-12T20:10:47.269Z,6.10
2018-07-12T20:13:16.773Z,5.70
2018-07-12T20:15:46.202Z,6.20
2018-07-12T20:18:15.905Z,5.97
2018-07-12T20:20:45.522Z,6.27
2018-07-12T20:23:15.105Z,6.37
2018-07-12T20:25:44.483Z,5.90
2018-07-12T20:28:14.165Z,6.77
2018-07-12T20:30:43.628Z,6.40
2018-07-12T20:33:13.126Z,7.00
2018-07-12T20:35:42.633Z,6.87
2018-07-12T20:38:11.950Z,6.57
2018-07-12T20:40:41.335Z,7.87
2018-07-12T20:43:17.866Z,8.00
2018-07-12T20:45:47.687Z,7.73
2018-07-12T20:48:17.575Z,8.50
2018-07-12T20:50:47.000Z,9.03
2018-07-12T20:53:16.678Z,9.60
2018-07-12T20:55:46.085Z,10.43
2018-07-12T20:58:15.500Z,11.70
2018-07-12T21:00:44.896Z,11.90
2018-07-12T21:03:14.333Z,11.90
2018-07-12T21:05:43.991Z,11.33
2018-07-12T21:08:13.458Z,11.47
2018-07-12T21:10:42.920Z,12.33
2018-07-12T21:13:12.319Z,12.20
2018-07-12T21:15:41.694Z,13.10
2018-07-12T21:18:10.824Z,11.17
2018-07-12T21:20:40.471Z,11.83
2018-07-12T21:23:09.911Z,12.30
2018-07-12T21:25:39.386Z,12.53
2018-07-12T21:28:09.051Z,12.33
2018-07-12T21:30:38.431Z,12.00
2018-07-12T21:33:07.793Z,11.03
2018-07-12T21:35:37.289Z,12.00
2018-07-12T21:38:06.618Z,12.70
2018-07-12T21:40:35.973Z,13.17
2018-07-12T21:43:05.439Z,13.07
2018-07-12T21:45:34.844Z,12.93
2018-07-12T21:48:04.233Z,12.73
2018-07-12T21:50:34.008Z,12.90
2018-07-12T21:53:03.348Z,13.43
2018-07-12T21:55:32.641Z,13.97
2018-07-12T21:58:02.044Z,13.10
2018-07-12T22:00:32.790Z,13.57
2018-07-12T22:03:02.460Z,13.20
2018-07-12T22:05:31.957Z,14.67
2018-07-12T22:08:11.801Z,14.53
2018-07-12T22:10:42.126Z,14.80
2018-07-12T22:13:12.130Z,13.83
2018-07-12T22:15:41.611Z,14.10
2018-07-12T22:18:11.413Z,15.60
2018-07-12T22:20:40.870Z,14.53
2018-07-12T22:23:10.421Z,14.70
2018-07-12T22:25:40.235Z,14.97
2018-07-12T22:28:09.702Z,15.13
2018-07-12T22:30:39.137Z,14.50
2018-07-12T22:33:08.484Z,14.37
2018-07-12T22:35:37.583Z,14.87
2018-07-12T22:38:06.944Z,15.97
2018-07-12T22:40:36.322Z,14.50
2018-07-12T22:43:05.666Z,15.97
2018-07-12T22:45:35.129Z,16.10
2018-07-12T22:48:04.553Z,17.13
2018-07-12T22:50:34.010Z,16.80
2018-07-12T22:53:03.473Z,17.77
2018-07-12T22:55:32.955Z,16.83
2018-07-12T22:58:02.306Z,17.87
2018-07-12T23:00:31.644Z,17.37
2018-07-12T23:03:01.068Z,16.90
2018-07-12T23:05:30.448Z,17.33
2018-07-12T23:08:00.086Z,17.37
2018-07-12T23:10:29.532Z,18.80
2018-07-12T23:12:58.795Z,17.43
2018-07-12T23:15:28.197Z,17.30
2018-07-12T23:17:58.280Z,17.53
2018-07-12T23:20:27.591Z,17.57
2018-07-12T23:22:57.135Z,16.77
2018-07-12T23:25:26.664Z,17.73
2018-07-12T23:27:56.040Z,16.63
2018-07-12T23:30:25.538Z,16.10
2018-07-12T23:32:55.163Z,16.20
2018-07-12T23:35:24.677Z,15.17
2018-07-12T23:37:54.064Z,16.40
2018-07-12T23:40:23.738Z,17.57
2018-07-12T23:42:53.356Z,19.17
2018-07-12T23:45:22.942Z,19.07
2018-07-12T23:47:52.365Z,19.00
2018-07-12T23:50:21.672Z,17.67
2018-07-12T23:52:51.102Z,18.00
2018-07-12T23:55:20.477Z,17.20
2018-07-12T23:57:49.803Z,17.80
